sensor_id;sensor_type;location;lat;lon;timestamp;P1;durP1;ratioP1;P2;durP2;ratioP2
73266;SDS011;61495;53.400;7.608;2023-03-02T00:01:02;25.17;;;11.02;;
73266;SDS011;61495;53.400;7.608;2023-03-02T00:03:32;25.75;;;12.23;;
73266;SDS011;61495;53.400;7.608;2023-03-02T00:05:59;26.52;;;11.93;;
73266;SDS011;61495;53.400;7.608;2023-03-02T00:08:25;30.40;;;13.38;;
73266;SDS011;61495;53.400;7.608;2023-03-02T00:10:52;24.00;;;10.82;;
73266;SDS011;61495;53.400;7.608;2023-03-02T00:13:18;27.38;;;11.82;;
73266;SDS011;61495;53.400;7.608;2023-03-02T00:15:45;29.63;;;12.98;;
73266;SDS011;61495;53.400;7.608;2023-03-02T00:18:10;29.20;;;13.63;;
73266;SDS011;61495;53.400;7.608;2023-03-02T00:20:36;30.60;;;13.73;;
73266;SDS011;61495;53.400;7.608;2023-03-02T00:23:01;34.35;;;13.88;;
73266;SDS011;61495;53.400;7.608;2023-03-02T00:25:26;31.90;;;13.77;;
73266;SDS011;61495;53.400;7.608;2023-03-02T00:27:52;35.58;;;14.25;;
73266;SDS011;61495;53.400;7.608;2023-03-02T00:30:18;38.92;;;16.88;;
73266;SDS011;61495;53.400;7.608;2023-03-02T00:32:44;36.38;;;15.07;;
73266;SDS011;61495;53.400;7.608;2023-03-02T00:35:09;37.88;;;15.93;;
73266;SDS011;61495;53.400;7.608;2023-03-02T00:37:36;36.53;;;14.93;;
73266;SDS011;61495;53.400;7.608;2023-03-02T00:40:05;38.67;;;16.00;;
73266;SDS011;61495;53.400;7.608;2023-03-02T00:42:38;38.97;;;15.88;;
73266;SDS011;61495;53.400;7.608;2023-03-02T00:45:03;39.70;;;14.27;;
73266;SDS011;61495;53.400;7.608;2023-03-02T00:47:31;38.03;;;16.00;;
73266;SDS011;61495;53.400;7.608;2023-03-02T00:49:58;39.55;;;15.98;;
73266;SDS011;61495;53.400;7.608;2023-03-02T00:52:23;37.47;;;16.55;;
73266;SDS011;61495;53.400;7.608;2023-03-02T00:54:48;40.13;;;15.50;;
73266;SDS011;61495;53.400;7.608;2023-03-02T00:57:14;38.08;;;16.35;;
73266;SDS011;61495;53.400;7.608;2023-03-02T00:59:39;39.63;;;15.82;;
73266;SDS011;61495;53.400;7.608;2023-03-02T01:02:05;38.90;;;17.55;;
73266;SDS011;61495;53.400;7.608;2023-03-02T01:04:35;41.00;;;16.98;;
73266;SDS011;61495;53.400;7.608;2023-03-02T01:07:04;44.90;;;16.50;;
73266;SDS011;61495;53.400;7.608;2023-03-02T01:09:31;38.17;;;16.60;;
73266;SDS011;61495;53.400;7.608;2023-03-02T01:11:56;36.63;;;15.13;;
73266;SDS011;61495;53.400;7.608;2023-03-02T01:14:23;36.45;;;15.05;;
73266;SDS011;61495;53.400;7.608;2023-03-02T01:16:49;41.95;;;14.95;;
73266;SDS011;61495;53.400;7.608;2023-03-02T01:19:15;41.20;;;14.88;;
73266;SDS011;61495;53.400;7.608;2023-03-02T01:21:41;33.58;;;13.65;;
73266;SDS011;61495;53.400;7.608;2023-03-02T01:24:07;33.85;;;15.23;;
73266;SDS011;61495;53.400;7.608;2023-03-02T01:26:34;35.00;;;15.13;;
73266;SDS011;61495;53.400;7.608;2023-03-02T01:29:00;27.20;;;12.82;;
73266;SDS011;61495;53.400;7.608;2023-03-02T01:31:26;31.58;;;13.27;;
73266;SDS011;61495;53.400;7.608;2023-03-02T01:33:52;29.00;;;13.23;;
73266;SDS011;61495;53.400;7.608;2023-03-02T01:36:18;33.00;;;14.57;;
73266;SDS011;61495;53.400;7.608;2023-03-02T01:38:44;31.10;;;13.77;;
73266;SDS011;61495;53.400;7.608;2023-03-02T01:41:10;27.63;;;13.43;;
73266;SDS011;61495;53.400;7.608;2023-03-02T01:43:35;30.05;;;12.80;;
73266;SDS011;61495;53.400;7.608;2023-03-02T01:46:05;31.63;;;13.32;;
73266;SDS011;61495;53.400;7.608;2023-03-02T01:48:43;28.45;;;11.63;;
73266;SDS011;61495;53.400;7.608;2023-03-02T01:51:16;30.67;;;12.75;;
73266;SDS011;61495;53.400;7.608;2023-03-02T01:56:24;26.48;;;11.38;;
73266;SDS011;61495;53.400;7.608;2023-03-02T01:58:53;25.67;;;10.68;;
73266;SDS011;61495;53.400;7.608;2023-03-02T02:01:26;26.65;;;11.07;;
73266;SDS011;61495;53.400;7.608;2023-03-02T02:03:54;24.98;;;9.90;;
73266;SDS011;61495;53.400;7.608;2023-03-02T02:06:24;27.98;;;13.82;;
73266;SDS011;61495;53.400;7.608;2023-03-02T02:08:55;23.50;;;10.65;;
73266;SDS011;61495;53.400;7.608;2023-03-02T02:11:21;27.88;;;12.35;;
73266;SDS011;61495;53.400;7.608;2023-03-02T02:13:52;27.50;;;11.88;;
73266;SDS011;61495;53.400;7.608;2023-03-02T02:16:20;27.60;;;11.32;;
73266;SDS011;61495;53.400;7.608;2023-03-02T02:18:46;29.05;;;12.05;;
73266;SDS011;61495;53.400;7.608;2023-03-02T02:21:11;25.95;;;13.05;;
73266;SDS011;61495;53.400;7.608;2023-03-02T02:26:34;25.65;;;11.43;;
73266;SDS011;61495;53.400;7.608;2023-03-02T02:29:12;23.95;;;11.45;;
73266;SDS011;61495;53.400;7.608;2023-03-02T02:31:53;25.10;;;11.70;;
73266;SDS011;61495;53.400;7.608;2023-03-02T02:34:27;20.38;;;10.85;;
73266;SDS011;61495;53.400;7.608;2023-03-02T02:37:02;22.33;;;10.73;;
73266;SDS011;61495;53.400;7.608;2023-03-02T02:39:33;22.83;;;10.82;;
73266;SDS011;61495;53.400;7.608;2023-03-02T02:42:05;23.52;;;10.80;;
73266;SDS011;61495;53.400;7.608;2023-03-02T02:44:35;21.38;;;10.65;;
73266;SDS011;61495;53.400;7.608;2023-03-02T02:47:01;23.30;;;10.55;;
73266;SDS011;61495;53.400;7.608;2023-03-02T02:49:37;21.75;;;10.43;;
73266;SDS011;61495;53.400;7.608;2023-03-02T02:52:04;23.65;;;10.98;;
73266;SDS011;61495;53.400;7.608;2023-03-02T02:54:31;24.70;;;12.05;;
73266;SDS011;61495;53.400;7.608;2023-03-02T02:57:00;26.10;;;11.55;;
73266;SDS011;61495;53.400;7.608;2023-03-02T02:59:29;23.33;;;11.05;;
73266;SDS011;61495;53.400;7.608;2023-03-02T03:01:58;23.88;;;10.93;;
73266;SDS011;61495;53.400;7.608;2023-03-02T03:04:24;23.05;;;10.70;;
73266;SDS011;61495;53.400;7.608;2023-03-02T03:09:29;22.23;;;11.63;;
73266;SDS011;61495;53.400;7.608;2023-03-02T03:12:17;27.75;;;11.48;;
73266;SDS011;61495;53.400;7.608;2023-03-02T03:14:43;22.75;;;10.90;;
73266;SDS011;61495;53.400;7.608;2023-03-02T03:17:09;28.83;;;12.52;;
73266;SDS011;61495;53.400;7.608;2023-03-02T03:19:38;24.55;;;12.25;;
73266;SDS011;61495;53.400;7.608;2023-03-02T03:22:05;26.40;;;12.13;;
73266;SDS011;61495;53.400;7.608;2023-03-02T03:24:31;28.58;;;14.25;;
73266;SDS011;61495;53.400;7.608;2023-03-02T03:26:58;26.55;;;12.23;;
73266;SDS011;61495;53.400;7.608;2023-03-02T03:29:24;29.40;;;13.60;;
73266;SDS011;61495;53.400;7.608;2023-03-02T03:31:53;31.27;;;14.65;;
73266;SDS011;61495;53.400;7.608;2023-03-02T03:34:20;26.80;;;12.13;;
73266;SDS011;61495;53.400;7.608;2023-03-02T03:36:46;29.60;;;13.43;;
73266;SDS011;61495;53.400;7.608;2023-03-02T03:39:12;26.55;;;13.68;;
73266;SDS011;61495;53.400;7.608;2023-03-02T03:41:39;24.98;;;13.02;;
73266;SDS011;61495;53.400;7.608;2023-03-02T03:44:04;31.08;;;13.43;;
73266;SDS011;61495;53.400;7.608;2023-03-02T03:46:30;31.17;;;14.10;;
73266;SDS011;61495;53.400;7.608;2023-03-02T03:48:56;31.17;;;13.77;;
73266;SDS011;61495;53.400;7.608;2023-03-02T03:51:22;29.92;;;13.95;;
73266;SDS011;61495;53.400;7.608;2023-03-02T03:53:47;27.42;;;12.57;;
73266;SDS011;61495;53.400;7.608;2023-03-02T03:56:24;33.45;;;14.43;;
73266;SDS011;61495;53.400;7.608;2023-03-02T03:58:50;28.77;;;13.13;;
73266;SDS011;61495;53.400;7.608;2023-03-02T04:01:47;31.55;;;12.65;;
73266;SDS011;61495;53.400;7.608;2023-03-02T04:06:41;23.70;;;11.20;;
73266;SDS011;61495;53.400;7.608;2023-03-02T04:11:33;30.15;;;12.10;;
73266;SDS011;61495;53.400;7.608;2023-03-02T04:14:09;31.45;;;14.10;;
73266;SDS011;61495;53.400;7.608;2023-03-02T04:16:35;29.20;;;12.63;;
73266;SDS011;61495;53.400;7.608;2023-03-02T04:19:01;27.02;;;11.65;;
73266;SDS011;61495;53.400;7.608;2023-03-02T04:21:28;29.20;;;14.23;;
73266;SDS011;61495;53.400;7.608;2023-03-02T04:26:19;27.45;;;11.45;;
73266;SDS011;61495;53.400;7.608;2023-03-02T04:28:45;29.70;;;13.10;;
73266;SDS011;61495;53.400;7.608;2023-03-02T04:31:14;28.45;;;12.50;;
73266;SDS011;61495;53.400;7.608;2023-03-02T04:33:40;26.58;;;11.63;;
73266;SDS011;61495;53.400;7.608;2023-03-02T04:36:05;33.17;;;13.63;;
73266;SDS011;61495;53.400;7.608;2023-03-02T04:38:31;24.45;;;11.73;;
73266;SDS011;61495;53.400;7.608;2023-03-02T04:40:56;25.77;;;11.90;;
73266;SDS011;61495;53.400;7.608;2023-03-02T04:43:22;23.15;;;11.63;;
73266;SDS011;61495;53.400;7.608;2023-03-02T04:45:49;25.42;;;12.48;;
73266;SDS011;61495;53.400;7.608;2023-03-02T04:48:17;26.73;;;12.40;;
73266;SDS011;61495;53.400;7.608;2023-03-02T04:50:42;33.13;;;13.05;;
73266;SDS011;61495;53.400;7.608;2023-03-02T04:53:08;28.75;;;11.88;;
73266;SDS011;61495;53.400;7.608;2023-03-02T04:57:59;31.70;;;12.80;;
73266;SDS011;61495;53.400;7.608;2023-03-02T05:00:24;28.00;;;11.45;;
73266;SDS011;61495;53.400;7.608;2023-03-02T05:02:52;27.10;;;13.35;;
73266;SDS011;61495;53.400;7.608;2023-03-02T05:07:45;29.70;;;11.75;;
73266;SDS011;61495;53.400;7.608;2023-03-02T05:12:37;27.17;;;11.27;;
73266;SDS011;61495;53.400;7.608;2023-03-02T05:15:21;31.55;;;13.27;;
73266;SDS011;61495;53.400;7.608;2023-03-02T05:17:56;28.67;;;12.10;;
73266;SDS011;61495;53.400;7.608;2023-03-02T05:22:51;27.67;;;10.65;;
73266;SDS011;61495;53.400;7.608;2023-03-02T05:25:21;31.92;;;12.90;;
73266;SDS011;61495;53.400;7.608;2023-03-02T05:27:46;27.88;;;12.77;;
73266;SDS011;61495;53.400;7.608;2023-03-02T05:30:12;25.50;;;11.23;;
73266;SDS011;61495;53.400;7.608;2023-03-02T05:32:38;26.67;;;11.57;;
73266;SDS011;61495;53.400;7.608;2023-03-02T05:35:04;28.25;;;11.23;;
73266;SDS011;61495;53.400;7.608;2023-03-02T05:37:30;26.85;;;10.93;;
73266;SDS011;61495;53.400;7.608;2023-03-02T05:39:55;31.63;;;11.82;;
73266;SDS011;61495;53.400;7.608;2023-03-02T05:44:46;27.00;;;10.13;;
73266;SDS011;61495;53.400;7.608;2023-03-02T05:47:12;24.17;;;9.98;;
73266;SDS011;61495;53.400;7.608;2023-03-02T05:49:37;26.08;;;12.07;;
73266;SDS011;61495;53.400;7.608;2023-03-02T05:52:02;25.07;;;10.07;;
73266;SDS011;61495;53.400;7.608;2023-03-02T05:54:28;24.42;;;10.45;;
73266;SDS011;61495;53.400;7.608;2023-03-02T05:56:53;27.95;;;10.05;;
73266;SDS011;61495;53.400;7.608;2023-03-02T05:59:18;23.30;;;9.30;;
73266;SDS011;61495;53.400;7.608;2023-03-02T06:04:09;22.87;;;9.07;;
73266;SDS011;61495;53.400;7.608;2023-03-02T06:09:00;18.73;;;7.40;;
73266;SDS011;61495;53.400;7.608;2023-03-02T06:11:25;23.58;;;9.00;;
73266;SDS011;61495;53.400;7.608;2023-03-02T06:13:54;24.95;;;9.90;;
73266;SDS011;61495;53.400;7.608;2023-03-02T06:16:19;23.77;;;9.68;;
73266;SDS011;61495;53.400;7.608;2023-03-02T06:18:44;25.25;;;9.43;;
73266;SDS011;61495;53.400;7.608;2023-03-02T06:21:10;25.52;;;10.32;;
73266;SDS011;61495;53.400;7.608;2023-03-02T06:23:35;25.02;;;9.93;;
73266;SDS011;61495;53.400;7.608;2023-03-02T06:26:05;26.10;;;8.80;;
73266;SDS011;61495;53.400;7.608;2023-03-02T06:28:32;23.17;;;8.82;;
73266;SDS011;61495;53.400;7.608;2023-03-02T06:30:57;20.83;;;8.10;;
73266;SDS011;61495;53.400;7.608;2023-03-02T06:33:24;19.52;;;8.40;;
73266;SDS011;61495;53.400;7.608;2023-03-02T06:35:50;24.55;;;9.02;;
73266;SDS011;61495;53.400;7.608;2023-03-02T06:40:41;24.92;;;8.85;;
73266;SDS011;61495;53.400;7.608;2023-03-02T06:43:10;24.10;;;9.00;;
73266;SDS011;61495;53.400;7.608;2023-03-02T06:45:36;19.70;;;9.50;;
73266;SDS011;61495;53.400;7.608;2023-03-02T06:50:27;24.02;;;9.55;;
73266;SDS011;61495;53.400;7.608;2023-03-02T06:55:18;26.23;;;9.57;;
73266;SDS011;61495;53.400;7.608;2023-03-02T06:57:43;28.40;;;10.65;;
73266;SDS011;61495;53.400;7.608;2023-03-02T07:00:09;23.85;;;10.60;;
73266;SDS011;61495;53.400;7.608;2023-03-02T07:02:39;24.63;;;9.80;;
73266;SDS011;61495;53.400;7.608;2023-03-02T07:07:30;25.60;;;8.60;;
73266;SDS011;61495;53.400;7.608;2023-03-02T07:09:56;22.25;;;8.85;;
73266;SDS011;61495;53.400;7.608;2023-03-02T07:12:24;21.87;;;9.63;;
73266;SDS011;61495;53.400;7.608;2023-03-02T07:14:50;21.65;;;9.20;;
73266;SDS011;61495;53.400;7.608;2023-03-02T07:19:40;20.47;;;8.40;;
73266;SDS011;61495;53.400;7.608;2023-03-02T07:24:31;22.20;;;8.80;;
73266;SDS011;61495;53.400;7.608;2023-03-02T07:29:21;19.90;;;7.67;;
73266;SDS011;61495;53.400;7.608;2023-03-02T07:34:12;21.42;;;8.98;;
73266;SDS011;61495;53.400;7.608;2023-03-02T07:36:39;20.23;;;9.07;;
73266;SDS011;61495;53.400;7.608;2023-03-02T07:41:30;18.47;;;7.73;;
73266;SDS011;61495;53.400;7.608;2023-03-02T07:46:20;16.87;;;8.47;;
73266;SDS011;61495;53.400;7.608;2023-03-02T07:51:11;23.43;;;8.47;;
73266;SDS011;61495;53.400;7.608;2023-03-02T07:53:36;16.83;;;6.85;;
73266;SDS011;61495;53.400;7.608;2023-03-02T07:58:31;20.85;;;8.13;;
73266;SDS011;61495;53.400;7.608;2023-03-02T08:03:22;20.50;;;8.80;;
73266;SDS011;61495;53.400;7.608;2023-03-02T08:05:47;25.95;;;8.23;;
73266;SDS011;61495;53.400;7.608;2023-03-02T08:10:38;19.23;;;7.50;;
73266;SDS011;61495;53.400;7.608;2023-03-02T08:15:29;19.38;;;8.32;;
73266;SDS011;61495;53.400;7.608;2023-03-02T08:17:54;18.75;;;7.88;;
73266;SDS011;61495;53.400;7.608;2023-03-02T08:22:45;14.00;;;6.50;;
73266;SDS011;61495;53.400;7.608;2023-03-02T08:27:35;16.17;;;6.80;;
73266;SDS011;61495;53.400;7.608;2023-03-02T08:30:02;18.10;;;6.43;;
73266;SDS011;61495;53.400;7.608;2023-03-02T08:32:28;18.85;;;7.00;;
73266;SDS011;61495;53.400;7.608;2023-03-02T08:37:18;15.73;;;7.20;;
73266;SDS011;61495;53.400;7.608;2023-03-02T08:42:09;20.70;;;8.80;;
73266;SDS011;61495;53.400;7.608;2023-03-02T08:47:00;15.27;;;8.07;;
73266;SDS011;61495;53.400;7.608;2023-03-02T08:51:50;22.27;;;8.77;;
73266;SDS011;61495;53.400;7.608;2023-03-02T08:54:17;18.60;;;8.07;;
73266;SDS011;61495;53.400;7.608;2023-03-02T08:56:44;22.27;;;9.07;;
73266;SDS011;61495;53.400;7.608;2023-03-02T09:01:36;23.90;;;8.35;;
73266;SDS011;61495;53.400;7.608;2023-03-02T09:06:29;18.63;;;8.20;;
73266;SDS011;61495;53.400;7.608;2023-03-02T09:08:57;22.83;;;9.50;;
73266;SDS011;61495;53.400;7.608;2023-03-02T09:13:48;22.88;;;9.10;;
73266;SDS011;61495;53.400;7.608;2023-03-02T09:16:14;23.48;;;9.63;;
73266;SDS011;61495;53.400;7.608;2023-03-02T09:18:40;23.83;;;8.60;;
73266;SDS011;61495;53.400;7.608;2023-03-02T09:21:06;25.23;;;8.55;;
73266;SDS011;61495;53.400;7.608;2023-03-02T09:23:31;26.17;;;10.20;;
73266;SDS011;61495;53.400;7.608;2023-03-02T09:25:57;24.95;;;10.15;;
73266;SDS011;61495;53.400;7.608;2023-03-02T09:28:23;27.02;;;9.35;;
73266;SDS011;61495;53.400;7.608;2023-03-02T09:30:49;23.50;;;9.50;;
73266;SDS011;61495;53.400;7.608;2023-03-02T09:33:16;22.70;;;10.27;;
73266;SDS011;61495;53.400;7.608;2023-03-02T09:35:42;22.10;;;9.90;;
73266;SDS011;61495;53.400;7.608;2023-03-02T09:38:08;22.55;;;9.20;;
73266;SDS011;61495;53.400;7.608;2023-03-02T09:40:37;25.85;;;9.60;;
73266;SDS011;61495;53.400;7.608;2023-03-02T09:45:48;28.13;;;10.35;;
73266;SDS011;61495;53.400;7.608;2023-03-02T09:53:52;24.13;;;9.05;;
73266;SDS011;61495;53.400;7.608;2023-03-02T09:56:27;30.23;;;12.23;;
73266;SDS011;61495;53.400;7.608;2023-03-02T09:59:04;28.63;;;10.70;;
73266;SDS011;61495;53.400;7.608;2023-03-02T10:01:50;25.02;;;9.13;;
73266;SDS011;61495;53.400;7.608;2023-03-02T10:04:39;27.70;;;10.70;;
73266;SDS011;61495;53.400;7.608;2023-03-02T10:07:12;24.73;;;10.52;;
73266;SDS011;61495;53.400;7.608;2023-03-02T10:09:39;24.17;;;10.88;;
73266;SDS011;61495;53.400;7.608;2023-03-02T10:15:21;23.05;;;9.95;;
73266;SDS011;61495;53.400;7.608;2023-03-02T10:23:11;19.48;;;8.50;;
73266;SDS011;61495;53.400;7.608;2023-03-02T10:25:51;22.40;;;9.60;;
73266;SDS011;61495;53.400;7.608;2023-03-02T10:28:24;17.38;;;8.20;;
73266;SDS011;61495;53.400;7.608;2023-03-02T10:33:40;19.40;;;8.43;;
73266;SDS011;61495;53.400;7.608;2023-03-02T10:36:16;17.70;;;8.27;;
73266;SDS011;61495;53.400;7.608;2023-03-02T10:38:46;17.63;;;7.78;;
73266;SDS011;61495;53.400;7.608;2023-03-02T10:41:14;16.67;;;7.57;;
73266;SDS011;61495;53.400;7.608;2023-03-02T10:43:54;17.30;;;8.30;;
73266;SDS011;61495;53.400;7.608;2023-03-02T10:46:24;17.67;;;7.57;;
73266;SDS011;61495;53.400;7.608;2023-03-02T10:48:53;15.88;;;7.18;;
73266;SDS011;61495;53.400;7.608;2023-03-02T10:51:21;16.23;;;7.78;;
73266;SDS011;61495;53.400;7.608;2023-03-02T10:53:48;14.15;;;7.00;;
73266;SDS011;61495;53.400;7.608;2023-03-02T10:56:17;17.80;;;8.32;;
73266;SDS011;61495;53.400;7.608;2023-03-02T10:58:45;14.98;;;6.70;;
73266;SDS011;61495;53.400;7.608;2023-03-02T11:01:15;15.98;;;6.88;;
73266;SDS011;61495;53.400;7.608;2023-03-02T11:03:53;10.65;;;5.70;;
73266;SDS011;61495;53.400;7.608;2023-03-02T11:06:20;15.27;;;7.07;;
73266;SDS011;61495;53.400;7.608;2023-03-02T11:08:58;13.23;;;6.85;;
73266;SDS011;61495;53.400;7.608;2023-03-02T11:11:38;14.35;;;6.55;;
73266;SDS011;61495;53.400;7.608;2023-03-02T11:14:07;16.73;;;7.38;;
73266;SDS011;61495;53.400;7.608;2023-03-02T11:16:38;13.85;;;7.20;;
73266;SDS011;61495;53.400;7.608;2023-03-02T11:19:09;13.32;;;7.13;;
73266;SDS011;61495;53.400;7.608;2023-03-02T11:21:37;11.75;;;6.28;;
73266;SDS011;61495;53.400;7.608;2023-03-02T11:24:15;15.65;;;6.30;;
73266;SDS011;61495;53.400;7.608;2023-03-02T11:26:52;16.42;;;6.47;;
73266;SDS011;61495;53.400;7.608;2023-03-02T11:29:32;13.15;;;5.18;;
73266;SDS011;61495;53.400;7.608;2023-03-02T11:32:07;13.52;;;6.55;;
73266;SDS011;61495;53.400;7.608;2023-03-02T11:34:45;15.50;;;6.47;;
73266;SDS011;61495;53.400;7.608;2023-03-02T11:37:19;14.02;;;6.50;;
73266;SDS011;61495;53.400;7.608;2023-03-02T11:42:17;12.93;;;5.90;;
73266;SDS011;61495;53.400;7.608;2023-03-02T11:44:46;12.05;;;5.32;;
73266;SDS011;61495;53.400;7.608;2023-03-02T11:47:12;11.52;;;5.90;;
73266;SDS011;61495;53.400;7.608;2023-03-02T11:49:42;12.57;;;5.85;;
73266;SDS011;61495;53.400;7.608;2023-03-02T11:52:25;15.38;;;5.47;;
73266;SDS011;61495;53.400;7.608;2023-03-02T11:54:56;13.02;;;6.28;;
73266;SDS011;61495;53.400;7.608;2023-03-02T11:57:32;11.60;;;6.50;;
73266;SDS011;61495;53.400;7.608;2023-03-02T12:00:04;12.68;;;5.85;;
73266;SDS011;61495;53.400;7.608;2023-03-02T12:02:39;13.38;;;5.55;;
73266;SDS011;61495;53.400;7.608;2023-03-02T12:05:06;12.95;;;5.95;;
73266;SDS011;61495;53.400;7.608;2023-03-02T12:07:55;13.10;;;6.95;;
73266;SDS011;61495;53.400;7.608;2023-03-02T12:10:28;13.57;;;7.38;;
73266;SDS011;61495;53.400;7.608;2023-03-02T12:17:52;14.90;;;5.70;;
73266;SDS011;61495;53.400;7.608;2023-03-02T12:22:46;13.32;;;6.43;;
73266;SDS011;61495;53.400;7.608;2023-03-02T12:27:44;14.77;;;7.03;;
73266;SDS011;61495;53.400;7.608;2023-03-02T12:32:42;11.48;;;5.75;;
73266;SDS011;61495;53.400;7.608;2023-03-02T12:35:13;14.48;;;5.10;;
73266;SDS011;61495;53.400;7.608;2023-03-02T12:48:56;11.48;;;5.97;;
73266;SDS011;61495;53.400;7.608;2023-03-02T12:51:29;10.30;;;4.88;;
73266;SDS011;61495;53.400;7.608;2023-03-02T12:54:40;13.52;;;5.63;;
73266;SDS011;61495;53.400;7.608;2023-03-02T12:57:15;12.80;;;5.85;;
73266;SDS011;61495;53.400;7.608;2023-03-02T12:59:42;11.50;;;5.32;;
73266;SDS011;61495;53.400;7.608;2023-03-02T13:04:42;11.70;;;5.68;;
73266;SDS011;61495;53.400;7.608;2023-03-02T13:07:14;10.63;;;5.95;;
73266;SDS011;61495;53.400;7.608;2023-03-02T13:09:42;12.50;;;6.30;;
73266;SDS011;61495;53.400;7.608;2023-03-02T13:12:11;12.35;;;6.70;;
73266;SDS011;61495;53.400;7.608;2023-03-02T13:14:39;11.80;;;5.93;;
73266;SDS011;61495;53.400;7.608;2023-03-02T13:17:05;11.38;;;6.03;;
73266;SDS011;61495;53.400;7.608;2023-03-02T13:19:46;11.25;;;5.30;;
73266;SDS011;61495;53.400;7.608;2023-03-02T13:22:14;12.68;;;6.18;;
73266;SDS011;61495;53.400;7.608;2023-03-02T13:24:53;11.98;;;5.70;;
73266;SDS011;61495;53.400;7.608;2023-03-02T13:27:24;10.13;;;4.68;;
73266;SDS011;61495;53.400;7.608;2023-03-02T13:29:51;9.57;;;4.95;;
73266;SDS011;61495;53.400;7.608;2023-03-02T13:34:52;13.10;;;5.75;;
73266;SDS011;61495;53.400;7.608;2023-03-02T13:37:35;11.50;;;5.38;;
73266;SDS011;61495;53.400;7.608;2023-03-02T13:40:04;12.80;;;6.25;;
73266;SDS011;61495;53.400;7.608;2023-03-02T13:42:50;13.88;;;5.68;;
73266;SDS011;61495;53.400;7.608;2023-03-02T13:45:26;11.02;;;5.72;;
73266;SDS011;61495;53.400;7.608;2023-03-02T13:47:52;12.80;;;5.50;;
73266;SDS011;61495;53.400;7.608;2023-03-02T13:50:21;14.10;;;6.38;;
73266;SDS011;61495;53.400;7.608;2023-03-02T13:52:49;13.65;;;6.28;;
73266;SDS011;61495;53.400;7.608;2023-03-02T13:55:17;12.13;;;6.25;;
73266;SDS011;61495;53.400;7.608;2023-03-02T13:57:44;9.95;;;5.38;;
73266;SDS011;61495;53.400;7.608;2023-03-02T14:00:44;11.85;;;6.20;;
73266;SDS011;61495;53.400;7.608;2023-03-02T14:03:03;11.13;;;5.10;;
73266;SDS011;61495;53.400;7.608;2023-03-02T14:05:44;11.60;;;5.68;;
73266;SDS011;61495;53.400;7.608;2023-03-02T14:08:10;12.98;;;5.72;;
73266;SDS011;61495;53.400;7.608;2023-03-02T14:10:35;11.45;;;5.35;;
73266;SDS011;61495;53.400;7.608;2023-03-02T14:13:24;12.25;;;6.00;;
73266;SDS011;61495;53.400;7.608;2023-03-02T14:15:50;12.60;;;5.90;;
73266;SDS011;61495;53.400;7.608;2023-03-02T14:21:00;14.43;;;6.40;;
73266;SDS011;61495;53.400;7.608;2023-03-02T14:23:26;12.23;;;6.25;;
73266;SDS011;61495;53.400;7.608;2023-03-02T14:25:52;13.40;;;5.72;;
73266;SDS011;61495;53.400;7.608;2023-03-02T14:28:21;12.85;;;6.45;;
73266;SDS011;61495;53.400;7.608;2023-03-02T14:30:54;13.65;;;6.43;;
73266;SDS011;61495;53.400;7.608;2023-03-02T14:33:21;12.40;;;6.25;;
73266;SDS011;61495;53.400;7.608;2023-03-02T14:35:47;12.57;;;5.60;;
73266;SDS011;61495;53.400;7.608;2023-03-02T14:38:15;10.77;;;5.80;;
73266;SDS011;61495;53.400;7.608;2023-03-02T14:40:41;13.98;;;6.03;;
73266;SDS011;61495;53.400;7.608;2023-03-02T14:43:07;12.00;;;6.00;;
73266;SDS011;61495;53.400;7.608;2023-03-02T14:45:33;12.52;;;6.18;;
73266;SDS011;61495;53.400;7.608;2023-03-02T14:47:59;13.93;;;5.38;;
73266;SDS011;61495;53.400;7.608;2023-03-02T14:50:24;14.40;;;6.07;;
73266;SDS011;61495;53.400;7.608;2023-03-02T14:52:50;12.40;;;5.85;;
73266;SDS011;61495;53.400;7.608;2023-03-02T14:55:28;9.52;;;4.80;;
73266;SDS011;61495;53.400;7.608;2023-03-02T14:57:57;10.07;;;4.57;;
73266;SDS011;61495;53.400;7.608;2023-03-02T15:00:24;9.48;;;4.65;;
73266;SDS011;61495;53.400;7.608;2023-03-02T15:02:50;12.13;;;5.45;;
73266;SDS011;61495;53.400;7.608;2023-03-02T15:05:16;12.57;;;4.75;;
73266;SDS011;61495;53.400;7.608;2023-03-02T15:07:41;10.60;;;5.35;;
73266;SDS011;61495;53.400;7.608;2023-03-02T15:10:09;12.82;;;5.72;;
73266;SDS011;61495;53.400;7.608;2023-03-02T15:12:37;11.20;;;4.72;;
73266;SDS011;61495;53.400;7.608;2023-03-02T15:15:02;12.07;;;5.25;;
73266;SDS011;61495;53.400;7.608;2023-03-02T15:17:28;11.40;;;5.28;;
73266;SDS011;61495;53.400;7.608;2023-03-02T15:19:53;11.00;;;4.87;;
73266;SDS011;61495;53.400;7.608;2023-03-02T15:22:19;11.65;;;5.13;;
73266;SDS011;61495;53.400;7.608;2023-03-02T15:24:44;8.40;;;3.70;;
73266;SDS011;61495;53.400;7.608;2023-03-02T15:27:09;10.80;;;5.22;;
73266;SDS011;61495;53.400;7.608;2023-03-02T15:29:35;12.85;;;5.90;;
73266;SDS011;61495;53.400;7.608;2023-03-02T15:32:00;11.55;;;4.75;;
73266;SDS011;61495;53.400;7.608;2023-03-02T15:34:26;9.10;;;4.78;;
73266;SDS011;61495;53.400;7.608;2023-03-02T15:36:51;11.02;;;4.70;;
73266;SDS011;61495;53.400;7.608;2023-03-02T15:39:16;12.13;;;5.05;;
73266;SDS011;61495;53.400;7.608;2023-03-02T15:41:42;12.23;;;4.40;;
73266;SDS011;61495;53.400;7.608;2023-03-02T15:44:13;10.95;;;4.95;;
73266;SDS011;61495;53.400;7.608;2023-03-02T15:46:45;10.98;;;4.63;;
73266;SDS011;61495;53.400;7.608;2023-03-02T15:49:11;13.18;;;5.57;;
73266;SDS011;61495;53.400;7.608;2023-03-02T15:51:36;9.48;;;4.85;;
73266;SDS011;61495;53.400;7.608;2023-03-02T15:54:01;10.43;;;5.10;;
73266;SDS011;61495;53.400;7.608;2023-03-02T15:56:27;9.98;;;4.05;;
73266;SDS011;61495;53.400;7.608;2023-03-02T15:58:52;8.98;;;3.88;;
73266;SDS011;61495;53.400;7.608;2023-03-02T16:01:17;8.27;;;4.05;;
73266;SDS011;61495;53.400;7.608;2023-03-02T16:03:43;8.48;;;3.97;;
73266;SDS011;61495;53.400;7.608;2023-03-02T16:06:09;8.73;;;4.05;;
73266;SDS011;61495;53.400;7.608;2023-03-02T16:08:35;7.85;;;3.47;;
73266;SDS011;61495;53.400;7.608;2023-03-02T16:11:02;9.15;;;3.72;;
73266;SDS011;61495;53.400;7.608;2023-03-02T16:13:29;8.70;;;4.18;;
73266;SDS011;61495;53.400;7.608;2023-03-02T16:15:55;8.80;;;3.60;;
73266;SDS011;61495;53.400;7.608;2023-03-02T16:18:24;9.23;;;4.30;;
73266;SDS011;61495;53.400;7.608;2023-03-02T16:20:49;9.25;;;4.10;;
73266;SDS011;61495;53.400;7.608;2023-03-02T16:23:14;10.17;;;4.67;;
73266;SDS011;61495;53.400;7.608;2023-03-02T16:25:40;10.52;;;3.90;;
73266;SDS011;61495;53.400;7.608;2023-03-02T16:28:11;9.70;;;3.95;;
73266;SDS011;61495;53.400;7.608;2023-03-02T16:30:38;11.00;;;4.72;;
73266;SDS011;61495;53.400;7.608;2023-03-02T16:33:05;11.43;;;4.78;;
73266;SDS011;61495;53.400;7.608;2023-03-02T16:35:33;11.73;;;5.40;;
73266;SDS011;61495;53.400;7.608;2023-03-02T16:37:59;10.60;;;4.97;;
73266;SDS011;61495;53.400;7.608;2023-03-02T16:40:25;11.07;;;5.43;;
73266;SDS011;61495;53.400;7.608;2023-03-02T16:42:50;12.10;;;5.57;;
73266;SDS011;61495;53.400;7.608;2023-03-02T16:45:17;12.15;;;6.20;;
73266;SDS011;61495;53.400;7.608;2023-03-02T16:47:43;16.20;;;6.97;;
73266;SDS011;61495;53.400;7.608;2023-03-02T16:50:09;13.48;;;6.10;;
73266;SDS011;61495;53.400;7.608;2023-03-02T16:52:36;15.23;;;7.00;;
73266;SDS011;61495;53.400;7.608;2023-03-02T16:55:01;16.77;;;7.57;;
73266;SDS011;61495;53.400;7.608;2023-03-02T16:57:27;15.25;;;7.25;;
73266;SDS011;61495;53.400;7.608;2023-03-02T16:59:52;16.45;;;8.07;;
73266;SDS011;61495;53.400;7.608;2023-03-02T17:02:18;16.93;;;8.73;;